Saint Louis, MO (63145)

3:51 PM CST on February 07, 2016 (GMT -0600)
APRSWXNET | | Change Station
CLOSE
Current Station
Personal Weather Station
Location: Woodson Terrace, MO
Elevation: 615 ft
Nearby Weather Stations

Elev 615 ft 38.73 °N, 90.35 °W | Updated 22 minutes ago

Mostly Cloudy
Mostly Cloudy
52 °F
Feels Like 52 °F
N
4
Wind Variable Wind from WNW
Gusts 10.0 mph

Today
High -- | Low -- °F
--% Chance of Precip.
Yesterday
High -- | Low -- °F
Precip. -- in
Pressure 29.91 in
Visibility 10.0 miles
Clouds Scattered Clouds 15000 ft
Mostly Cloudy 20000 ft
Dew Point 28 °F
Humidity 40%
Rainfall in
Snow Depth Not available.
7:02 AM 5:29 PM
Waning Crescent, 1% visible
METAR KSTL 072051Z 27015G20KT 10SM SCT150 BKN200 12/M03 A2989 RMK AO2 SLP126 T01171028 56013 $
Pressure 29.91 in
Visibility 10.0 miles
Clouds Scattered Clouds 15000 ft
Mostly Cloudy 20000 ft
Dew Point 28 °F
Humidity 40%
Rainfall in
Snow Depth Not available.
7:02 AM 5:29 PM
Waning Crescent, 1% visible
METAR KSTL 072051Z 27015G20KT 10SM SCT150 BKN200 12/M03 A2989 RMK AO2 SLP126 T01171028 56013 $

10-Day Weather Forecast

Almanac

Astronomy

Feb. 07, 2016 Rise Set
Actual Time
Civil Twilight
Nautical Twilight
Astronomical Twilight
Moon
Length of Visible Light
Length of Day
Tomorrow will be .
, % of the Moon is Illuminated

Today's Extremes

State Highs State Lows

Community

WunderPhotos

Upload Photos

1,891,304 photos uploaded!

WunderBlog® & News

Nearby

Air Quality

  Air Quality AQ Index Pollutant
Not available.

Snow Depth

Station Depth Elevation

Earthquake Activity

City Distance Mag. Time & Date
Minimum magnitude displayed is 2.5.

Coastal Water Temperatures

Place Temperature

Stations

Nearby Weather Stations

Station Location Temp. Windchill Dew Point Humidity Wind Precip. Elev Updated Type
                   

Watches & Warnings

There are currently no watches in effect.